Aviation Digital Data Service (ADDS)

Output produced by METARs form (1500 UTC 26 September 2021)
found at http://www.aviationweather.gov/metar/data/
 
ESTA 261450Z 13010KT 9999 BKN033 17/12 Q1019
TAF ESTA 261415Z 2615/2622 14008KT 9999 SCT030